National Weather Service Raw Text Product

Displaying AFOS PIL: TAFMCW Received: 2018-02-09 23:29 UTC


699 
FTUS43 KDMX 092329
TAFMCW
TAF
KMCW 092329Z 1000/1024 33008KT P6SM BKN200
     FM100400 32006KT P6SM OVC070
     FM101300 31005KT P6SM BKN180=